createdAt,value
2019-01-24T00:00:47.814Z,84.55
2019-01-24T00:03:17.126Z,84.53
2019-01-24T00:05:48.753Z,84.57
2019-01-24T00:08:19.091Z,84.62
2019-01-24T00:10:48.560Z,84.58
2019-01-24T00:13:17.901Z,84.58
2019-01-24T00:15:50.733Z,84.64
2019-01-24T00:18:20.139Z,84.67
2019-01-24T00:20:51.795Z,84.70
2019-01-24T00:23:25.247Z,84.70
2019-01-24T00:26:00.643Z,84.83
2019-01-24T00:28:38.393Z,84.88
2019-01-24T00:31:07.619Z,84.94
2019-01-24T00:33:37.614Z,84.98
2019-01-24T00:36:12.243Z,85.00
2019-01-24T00:38:42.967Z,84.91
2019-01-24T00:41:23.360Z,84.85
2019-01-24T00:44:00.514Z,84.90
2019-01-24T00:46:31.766Z,84.98
2019-01-24T00:49:01.297Z,84.91
2019-01-24T00:51:30.614Z,84.81
2019-01-24T00:54:20.854Z,84.74
2019-01-24T00:56:51.015Z,84.68
2019-01-24T00:59:22.211Z,84.67
2019-01-24T01:01:54.495Z,84.59
2019-01-24T01:04:29.594Z,84.54
2019-01-24T01:06:57.070Z,84.56
2019-01-24T01:09:26.342Z,84.49
2019-01-24T01:11:55.832Z,84.40
2019-01-24T01:14:25.074Z,84.25
2019-01-24T01:16:54.335Z,84.22
2019-01-24T01:19:23.543Z,84.25
2019-01-24T01:21:52.766Z,84.28
2019-01-24T01:24:22.044Z,84.26
2019-01-24T01:26:51.263Z,84.28
2019-01-24T01:29:21.145Z,84.38
2019-01-24T01:31:50.419Z,84.33
2019-01-24T01:34:19.689Z,84.37
2019-01-24T01:36:48.866Z,84.34
2019-01-24T01:39:18.155Z,84.36
2019-01-24T01:41:47.877Z,84.39
2019-01-24T01:44:17.416Z,84.49
2019-01-24T01:46:46.719Z,84.56
2019-01-24T01:49:15.924Z,84.61
2019-01-24T01:51:45.118Z,84.59
2019-01-24T01:54:14.406Z,84.64
2019-01-24T01:56:43.606Z,84.73
2019-01-24T01:59:12.808Z,84.75
2019-01-24T02:01:42.069Z,84.75
2019-01-24T02:04:11.259Z,84.81
2019-01-24T02:06:40.521Z,84.87
2019-01-24T02:09:10.525Z,84.89
2019-01-24T02:11:39.751Z,84.86
2019-01-24T02:14:09.310Z,84.90
2019-01-24T02:16:38.583Z,84.94
2019-01-24T02:19:09.454Z,84.96
2019-01-24T02:21:38.672Z,84.97
2019-01-24T02:24:07.959Z,84.97
2019-01-24T02:26:37.176Z,84.95
2019-01-24T02:29:06.397Z,84.92
2019-01-24T02:31:36.105Z,84.91
2019-01-24T02:34:07.738Z,85.01
2019-01-24T02:36:36.961Z,85.02
2019-01-24T02:39:08.283Z,84.95
2019-01-24T02:41:37.510Z,84.96
2019-01-24T02:44:08.123Z,84.99
2019-01-24T02:46:37.583Z,85.04
2019-01-24T02:49:06.801Z,85.06
2019-01-24T02:51:36.270Z,85.08
2019-01-24T02:54:05.548Z,85.13
2019-01-24T02:56:34.815Z,85.14
2019-01-24T02:59:04.355Z,85.21
2019-01-24T03:01:33.617Z,85.27
2019-01-24T03:04:02.855Z,85.32
2019-01-24T03:06:32.069Z,85.39
2019-01-24T03:09:01.314Z,85.51
2019-01-24T03:11:30.522Z,85.47
2019-01-24T03:13:59.758Z,85.48
2019-01-24T03:16:29.019Z,85.43
2019-01-24T03:18:59.539Z,85.42
2019-01-24T03:21:28.753Z,85.45
2019-01-24T03:23:58.020Z,85.52
2019-01-24T03:26:27.227Z,85.58
2019-01-24T03:28:56.441Z,85.56
2019-01-24T03:31:25.798Z,85.54
2019-01-24T03:33:55.353Z,85.50
2019-01-24T03:36:24.595Z,85.48
2019-01-24T03:38:53.936Z,85.49
2019-01-24T03:41:23.148Z,85.46
2019-01-24T03:43:52.355Z,85.42
2019-01-24T03:46:21.694Z,85.41
2019-01-24T03:48:50.897Z,85.33
2019-01-24T03:51:20.381Z,85.33
2019-01-24T03:53:49.598Z,85.28
2019-01-24T03:56:18.819Z,85.22
2019-01-24T03:58:48.045Z,85.23
2019-01-24T04:01:17.268Z,85.35
2019-01-24T04:03:46.501Z,85.43
2019-01-24T04:06:15.737Z,85.50
2019-01-24T04:08:45.013Z,85.49
2019-01-24T04:11:14.227Z,85.44
2019-01-24T04:13:43.559Z,85.35
2019-01-24T04:16:12.824Z,85.28
2019-01-24T04:18:42.043Z,85.23
2019-01-24T04:21:11.234Z,85.16
2019-01-24T04:23:40.610Z,85.15
2019-01-24T04:26:09.822Z,85.14
2019-01-24T04:28:39.129Z,85.13
2019-01-24T04:31:08.381Z,85.07
2019-01-24T04:33:39.837Z,85.02
2019-01-24T04:36:09.586Z,85.00
2019-01-24T04:38:39.096Z,85.02
2019-01-24T04:41:08.912Z,85.08
2019-01-24T04:43:38.099Z,85.09
2019-01-24T04:46:07.344Z,85.06
2019-01-24T04:48:36.575Z,85.06
2019-01-24T04:51:05.804Z,85.10
2019-01-24T04:53:35.042Z,85.05
2019-01-24T04:56:04.894Z,85.10
2019-01-24T04:58:34.104Z,85.14
2019-01-24T05:01:03.355Z,85.17
2019-01-24T05:03:32.576Z,85.12
2019-01-24T05:06:01.787Z,85.14
2019-01-24T05:08:31.035Z,85.06
2019-01-24T05:11:00.253Z,85.13
2019-01-24T05:13:29.458Z,85.19
2019-01-24T05:15:58.680Z,85.20
2019-01-24T05:18:27.911Z,85.20
2019-01-24T05:20:57.128Z,85.15
2019-01-24T05:23:26.379Z,85.20
2019-01-24T05:25:56.192Z,85.19
2019-01-24T05:28:25.425Z,85.18
2019-01-24T05:30:54.708Z,85.12
2019-01-24T05:33:24.394Z,85.07
2019-01-24T05:35:53.650Z,85.01
2019-01-24T05:38:23.043Z,85.01
2019-01-24T05:40:52.361Z,85.02
2019-01-24T05:43:21.822Z,85.04
2019-01-24T05:45:51.093Z,85.03
2019-01-24T05:48:20.313Z,85.06
2019-01-24T05:50:50.991Z,85.08
2019-01-24T05:53:20.266Z,85.08
2019-01-24T05:55:49.488Z,85.04
2019-01-24T05:58:18.714Z,85.03
2019-01-24T06:00:48.369Z,85.01
2019-01-24T06:03:17.583Z,84.99
2019-01-24T06:05:46.897Z,85.00
2019-01-24T06:08:16.125Z,85.02
2019-01-24T06:10:45.416Z,85.01
2019-01-24T06:13:14.656Z,84.95
2019-01-24T06:15:44.362Z,84.91
2019-01-24T06:18:13.616Z,84.96
2019-01-24T06:20:42.817Z,84.95
2019-01-24T06:23:12.079Z,84.97
2019-01-24T06:25:41.289Z,85.00
2019-01-24T06:28:10.499Z,84.99
2019-01-24T06:30:39.814Z,85.09
2019-01-24T06:33:11.027Z,85.02
2019-01-24T06:35:40.268Z,84.98
2019-01-24T06:38:09.553Z,84.95
2019-01-24T06:40:38.862Z,84.98
2019-01-24T06:43:08.301Z,84.99
2019-01-24T06:45:37.711Z,85.00
2019-01-24T06:48:06.988Z,84.99
2019-01-24T06:50:36.215Z,85.01
2019-01-24T06:53:05.571Z,84.99
2019-01-24T06:55:35.053Z,84.99
2019-01-24T06:58:04.643Z,84.96
2019-01-24T07:00:33.899Z,84.90
2019-01-24T07:03:03.446Z,84.92
2019-01-24T07:05:32.682Z,84.90
2019-01-24T07:08:01.936Z,84.94
2019-01-24T07:10:31.152Z,84.97
2019-01-24T07:13:00.380Z,84.96
2019-01-24T07:15:29.637Z,84.90
2019-01-24T07:17:58.855Z,84.89
2019-01-24T07:20:28.065Z,84.83
2019-01-24T07:22:57.622Z,84.78
2019-01-24T07:25:29.285Z,84.80
2019-01-24T07:28:00.865Z,84.84
2019-01-24T07:30:30.125Z,84.83
2019-01-24T07:33:01.586Z,84.83
2019-01-24T07:35:33.176Z,84.84
2019-01-24T07:38:02.424Z,84.84
2019-01-24T07:40:31.657Z,84.86
2019-01-24T07:43:02.079Z,84.94
2019-01-24T07:45:37.253Z,84.99
2019-01-24T07:48:06.839Z,85.03
2019-01-24T07:50:36.068Z,85.05
2019-01-24T07:53:07.486Z,85.03
2019-01-24T07:55:36.981Z,85.00
2019-01-24T07:58:07.551Z,85.02
2019-01-24T08:00:36.867Z,85.05
2019-01-24T08:03:06.549Z,85.02
2019-01-24T08:05:36.166Z,85.13
2019-01-24T08:08:06.161Z,85.16
2019-01-24T08:10:35.398Z,85.16
2019-01-24T08:13:05.680Z,85.20
2019-01-24T08:15:36.166Z,85.16
2019-01-24T08:18:05.925Z,85.11
2019-01-24T08:20:35.181Z,85.11
2019-01-24T08:23:04.431Z,85.14
2019-01-24T08:25:33.644Z,85.18
2019-01-24T08:28:02.843Z,85.21
2019-01-24T08:30:33.547Z,85.25
2019-01-24T08:33:02.768Z,85.17
2019-01-24T08:35:39.246Z,85.22
2019-01-24T08:38:10.658Z,85.22
2019-01-24T08:40:39.879Z,85.28
2019-01-24T08:43:09.145Z,85.25
2019-01-24T08:45:38.548Z,85.17
2019-01-24T08:48:09.453Z,85.26
2019-01-24T08:50:38.977Z,85.23
2019-01-24T08:53:08.240Z,85.17
2019-01-24T08:55:39.899Z,85.31
2019-01-24T08:58:09.969Z,85.62
2019-01-24T09:00:40.775Z,85.82
2019-01-24T09:03:10.068Z,85.94
2019-01-24T09:05:41.849Z,85.97
2019-01-24T09:08:11.140Z,85.91
2019-01-24T09:10:41.156Z,85.77
2019-01-24T09:13:11.994Z,85.48
2019-01-24T09:15:41.209Z,85.38
2019-01-24T09:18:10.813Z,85.18
2019-01-24T09:20:40.158Z,85.07
2019-01-24T09:23:11.408Z,84.99
2019-01-24T09:25:40.629Z,85.29
2019-01-24T09:28:14.802Z,85.60
2019-01-24T09:30:40.810Z,85.25
2019-01-24T09:33:10.095Z,85.05
2019-01-24T09:35:39.529Z,85.08
2019-01-24T09:38:10.458Z,84.86
2019-01-24T09:40:39.681Z,85.03
2019-01-24T09:43:08.957Z,84.99
2019-01-24T09:45:38.171Z,85.05
2019-01-24T09:48:08.404Z,84.78
2019-01-24T09:50:37.653Z,84.90
2019-01-24T09:53:08.694Z,84.87
2019-01-24T09:55:37.908Z,84.82
2019-01-24T09:58:07.139Z,84.91
2019-01-24T10:00:37.999Z,84.85
2019-01-24T10:03:08.300Z,84.90
2019-01-24T10:05:37.583Z,84.83
2019-01-24T10:08:07.731Z,84.67
2019-01-24T10:10:36.949Z,84.65
2019-01-24T10:13:06.634Z,84.88
2019-01-24T10:15:35.843Z,84.88
2019-01-24T10:18:05.099Z,84.77
2019-01-24T10:20:34.353Z,84.71
2019-01-24T10:23:03.963Z,84.15
2019-01-24T10:25:39.788Z,83.96
2019-01-24T10:28:09.859Z,83.74
2019-01-24T10:30:43.147Z,83.48
2019-01-24T10:33:10.089Z,83.29
2019-01-24T10:35:39.717Z,82.63
2019-01-24T10:38:09.024Z,81.96
2019-01-24T10:40:38.278Z,81.12
2019-01-24T10:43:07.605Z,81.41
2019-01-24T10:45:36.653Z,80.92
2019-01-24T10:48:06.461Z,80.56
2019-01-24T10:50:36.024Z,80.51
2019-01-24T10:53:05.359Z,80.40
2019-01-24T10:55:34.792Z,79.78
2019-01-24T10:58:05.222Z,79.89
2019-01-24T11:00:42.924Z,80.48
2019-01-24T11:03:17.015Z,80.38
2019-01-24T11:05:46.335Z,80.67
2019-01-24T11:08:16.253Z,80.89
2019-01-24T11:10:45.860Z,80.81
2019-01-24T11:13:15.082Z,80.79
2019-01-24T11:15:44.349Z,80.84
2019-01-24T11:18:14.001Z,80.69
2019-01-24T11:20:43.396Z,80.62
2019-01-24T11:23:12.666Z,80.51
2019-01-24T11:25:41.896Z,80.37
2019-01-24T11:28:11.109Z,80.49
2019-01-24T11:30:40.415Z,80.49
2019-01-24T11:33:09.806Z,80.30
2019-01-24T11:35:39.201Z,80.14
2019-01-24T11:38:09.247Z,80.05
2019-01-24T11:40:38.497Z,79.90
2019-01-24T11:43:07.807Z,79.71
2019-01-24T11:45:44.151Z,79.75
2019-01-24T11:48:13.385Z,79.74
2019-01-24T11:50:42.907Z,79.81
2019-01-24T11:53:12.318Z,79.85
2019-01-24T11:55:41.553Z,80.05
2019-01-24T11:58:10.969Z,80.23
2019-01-24T12:00:45.746Z,80.19
2019-01-24T12:03:14.977Z,80.20
2019-01-24T12:05:44.218Z,80.07
2019-01-24T12:08:13.787Z,80.07
2019-01-24T12:10:42.985Z,80.22
2019-01-24T12:13:12.517Z,80.26
2019-01-24T12:15:41.806Z,80.35
2019-01-24T12:18:11.061Z,80.38
2019-01-24T12:20:40.262Z,80.50
2019-01-24T12:23:09.487Z,80.45
2019-01-24T12:25:38.802Z,80.54
2019-01-24T12:28:08.018Z,80.48
2019-01-24T12:30:37.596Z,80.57
2019-01-24T12:33:07.694Z,80.42
2019-01-24T12:35:36.925Z,80.05
2019-01-24T12:38:06.661Z,79.92
2019-01-24T12:40:35.893Z,80.00
2019-01-24T12:43:06.051Z,80.15
2019-01-24T12:45:36.979Z,79.87
2019-01-24T12:48:07.420Z,79.55
2019-01-24T12:50:36.745Z,79.13
2019-01-24T12:53:07.259Z,79.23
2019-01-24T12:55:36.593Z,79.43
2019-01-24T12:58:06.417Z,79.43
2019-01-24T13:00:37.917Z,79.53
2019-01-24T13:03:07.225Z,79.54
2019-01-24T13:05:36.444Z,79.73
2019-01-24T13:08:06.597Z,79.59
2019-01-24T13:10:35.956Z,79.74
2019-01-24T13:13:07.870Z,79.68
2019-01-24T13:15:37.197Z,79.65
2019-01-24T13:18:06.687Z,79.80
2019-01-24T13:20:35.892Z,79.94
2019-01-24T13:23:05.439Z,79.84
2019-01-24T13:25:35.454Z,79.68
2019-01-24T13:28:05.078Z,79.75
2019-01-24T13:30:34.844Z,79.86
2019-01-24T13:33:04.948Z,80.00
2019-01-24T13:35:34.162Z,80.06
2019-01-24T13:38:03.441Z,80.02
2019-01-24T13:40:33.219Z,80.06
2019-01-24T13:43:03.088Z,80.07
2019-01-24T13:45:34.593Z,80.05
2019-01-24T13:48:04.132Z,80.15
2019-01-24T13:50:33.339Z,80.16
2019-01-24T13:53:02.642Z,80.22
2019-01-24T13:55:32.561Z,80.16
2019-01-24T13:58:03.013Z,80.05
2019-01-24T14:00:37.159Z,79.99
2019-01-24T14:03:18.533Z,79.94
2019-01-24T14:05:48.695Z,80.14
2019-01-24T14:08:17.970Z,80.22
2019-01-24T14:10:48.043Z,80.31
2019-01-24T14:13:17.356Z,80.47
2019-01-24T14:15:46.576Z,80.51
2019-01-24T14:18:16.009Z,80.47
2019-01-24T14:20:45.334Z,80.48
2019-01-24T14:23:14.655Z,80.50
2019-01-24T14:25:44.176Z,80.53
2019-01-24T14:28:13.564Z,80.53
2019-01-24T14:30:43.956Z,80.43
2019-01-24T14:33:14.062Z,80.53
2019-01-24T14:35:44.317Z,80.57
2019-01-24T14:38:15.592Z,80.62
2019-01-24T14:40:44.795Z,80.74
2019-01-24T14:43:16.050Z,80.84
2019-01-24T14:45:47.027Z,81.05
2019-01-24T14:48:16.490Z,81.07
2019-01-24T14:50:46.173Z,81.17
2019-01-24T14:53:15.739Z,81.30
2019-01-24T14:55:45.318Z,81.33
2019-01-24T14:58:15.842Z,81.52
2019-01-24T15:00:52.084Z,81.50
2019-01-24T15:03:24.403Z,81.53
2019-01-24T15:05:53.683Z,81.63
2019-01-24T15:08:24.296Z,81.74
2019-01-24T15:10:55.933Z,81.63
2019-01-24T15:13:26.219Z,81.63
2019-01-24T15:15:57.459Z,81.68
2019-01-24T15:18:29.284Z,81.64
2019-01-24T15:20:58.800Z,81.75
2019-01-24T15:23:28.440Z,81.82
2019-01-24T15:26:01.072Z,81.88
2019-01-24T15:28:30.324Z,81.85
2019-01-24T15:30:59.712Z,81.82
2019-01-24T15:33:31.166Z,81.96
2019-01-24T15:36:00.422Z,81.98
2019-01-24T15:38:31.670Z,81.99
2019-01-24T15:41:02.281Z,82.07
2019-01-24T15:43:31.538Z,82.04
2019-01-24T15:46:00.786Z,82.06
2019-01-24T15:48:30.260Z,82.11
2019-01-24T15:50:59.500Z,82.13
2019-01-24T15:53:28.700Z,82.22
2019-01-24T15:55:57.947Z,82.30
2019-01-24T15:58:30.647Z,82.38
2019-01-24T16:00:59.935Z,82.39
2019-01-24T16:03:29.551Z,82.44
2019-01-24T16:05:58.758Z,82.46
2019-01-24T16:08:28.068Z,82.51
2019-01-24T16:10:57.364Z,82.56
2019-01-24T16:13:26.601Z,82.58
2019-01-24T16:15:55.876Z,82.65
2019-01-24T16:18:25.148Z,82.62
2019-01-24T16:20:55.348Z,82.63
2019-01-24T16:23:27.618Z,82.61
2019-01-24T16:25:58.243Z,82.61
2019-01-24T16:28:27.457Z,82.67
2019-01-24T16:30:56.818Z,82.72
2019-01-24T16:33:26.174Z,82.73
2019-01-24T16:35:57.189Z,82.79
2019-01-24T16:38:26.456Z,82.81
2019-01-24T16:40:57.353Z,82.83
2019-01-24T16:43:27.494Z,82.88
2019-01-24T16:45:56.714Z,82.93
2019-01-24T16:48:27.990Z,82.95
2019-01-24T16:50:57.650Z,82.96
2019-01-24T16:53:26.855Z,83.06
2019-01-24T16:55:56.124Z,83.07
2019-01-24T16:58:26.575Z,83.06
2019-01-24T17:01:13.968Z,83.15
2019-01-24T17:03:43.204Z,83.07
2019-01-24T17:06:12.552Z,83.12
2019-01-24T17:08:41.995Z,83.13
2019-01-24T17:11:11.212Z,83.23
2019-01-24T17:13:40.532Z,83.28
2019-01-24T17:16:09.899Z,83.28
2019-01-24T17:18:39.156Z,83.30
2019-01-24T17:21:08.372Z,83.32
2019-01-24T17:23:37.620Z,83.38
2019-01-24T17:26:07.380Z,83.38
2019-01-24T17:28:36.594Z,83.45
2019-01-24T17:31:06.314Z,83.47
2019-01-24T17:33:35.545Z,83.45
2019-01-24T17:36:05.432Z,83.42
2019-01-24T17:38:34.685Z,83.47
2019-01-24T17:41:04.218Z,83.48
2019-01-24T17:43:33.463Z,83.53
2019-01-24T17:46:03.035Z,83.56
2019-01-24T17:48:32.285Z,83.57
2019-01-24T17:51:03.918Z,83.56
2019-01-24T17:53:33.769Z,83.56
2019-01-24T17:56:02.968Z,83.55
2019-01-24T17:58:32.017Z,83.57
2019-01-24T18:01:01.291Z,83.58
2019-01-24T18:03:30.499Z,83.57
2019-01-24T18:06:03.096Z,83.65
2019-01-24T18:08:32.439Z,83.65
2019-01-24T18:11:01.652Z,83.64
2019-01-24T18:13:30.931Z,83.64
2019-01-24T18:16:00.219Z,83.62
2019-01-24T18:18:29.447Z,83.61
2019-01-24T18:20:58.645Z,83.64
2019-01-24T18:23:28.016Z,83.68
2019-01-24T18:25:57.350Z,83.57
2019-01-24T18:28:26.982Z,83.63
2019-01-24T18:30:56.281Z,83.62
2019-01-24T18:33:26.520Z,83.62
2019-01-24T18:35:55.787Z,83.61
2019-01-24T18:38:25.105Z,83.60
2019-01-24T18:40:55.768Z,83.54
2019-01-24T18:43:37.201Z,83.58
2019-01-24T18:46:06.935Z,83.58
2019-01-24T18:48:44.148Z,83.55
2019-01-24T18:51:13.463Z,83.54
2019-01-24T18:53:42.858Z,83.55
2019-01-24T18:56:12.179Z,83.58
2019-01-24T18:58:41.396Z,83.62
2019-01-24T19:01:10.635Z,83.58
2019-01-24T19:03:40.443Z,83.67
2019-01-24T19:06:09.848Z,83.63
2019-01-24T19:08:45.813Z,83.62
2019-01-24T19:11:12.454Z,83.59
2019-01-24T19:13:42.100Z,83.61
2019-01-24T19:16:11.684Z,83.66
2019-01-24T19:18:40.964Z,83.64
2019-01-24T19:21:10.195Z,83.66
2019-01-24T19:23:40.394Z,83.70
2019-01-24T19:26:11.846Z,83.67
2019-01-24T19:28:47.301Z,83.67
2019-01-24T19:31:17.088Z,83.65
2019-01-24T19:33:46.392Z,83.59
2019-01-24T19:36:15.894Z,83.61
2019-01-24T19:38:52.870Z,83.66
2019-01-24T19:41:17.421Z,83.61
2019-01-24T19:43:46.617Z,83.63
2019-01-24T19:46:15.869Z,83.57
2019-01-24T19:48:45.120Z,83.58
2019-01-24T19:51:16.617Z,83.62
2019-01-24T19:53:45.996Z,83.55
2019-01-24T19:56:15.258Z,83.53
2019-01-24T19:58:44.511Z,83.54
2019-01-24T20:01:13.762Z,83.52
2019-01-24T20:03:46.162Z,83.52
2019-01-24T20:06:15.657Z,83.54
2019-01-24T20:08:45.202Z,83.59
2019-01-24T20:11:14.425Z,83.65
2019-01-24T20:13:43.732Z,83.71
2019-01-24T20:16:14.205Z,83.74
2019-01-24T20:18:43.425Z,83.74
2019-01-24T20:21:12.636Z,83.74
2019-01-24T20:23:41.878Z,83.68
2019-01-24T20:26:11.153Z,83.70
2019-01-24T20:28:40.388Z,83.70
2019-01-24T20:31:10.876Z,83.67
2019-01-24T20:33:40.074Z,83.66
2019-01-24T20:36:09.262Z,83.58
2019-01-24T20:38:38.687Z,83.55
2019-01-24T20:41:07.953Z,83.51
2019-01-24T20:43:37.979Z,83.49
2019-01-24T20:46:07.587Z,83.51
2019-01-24T20:48:36.779Z,83.49
2019-01-24T20:51:06.157Z,83.47
2019-01-24T20:53:35.594Z,83.47
2019-01-24T20:56:07.080Z,83.40
2019-01-24T20:58:36.292Z,83.43
2019-01-24T21:01:07.655Z,83.48
2019-01-24T21:03:36.901Z,83.46
2019-01-24T21:06:06.276Z,83.39
2019-01-24T21:08:35.565Z,83.26
2019-01-24T21:11:06.999Z,83.33
2019-01-24T21:13:36.210Z,83.31
2019-01-24T21:16:05.699Z,83.34
2019-01-24T21:18:34.892Z,83.34
2019-01-24T21:21:04.116Z,83.18
2019-01-24T21:23:33.415Z,83.10
2019-01-24T21:26:02.628Z,83.03
2019-01-24T21:28:31.995Z,83.14
2019-01-24T21:31:01.241Z,83.21
2019-01-24T21:33:31.675Z,83.37
2019-01-24T21:36:00.947Z,83.40
2019-01-24T21:38:30.294Z,83.40
2019-01-24T21:40:59.539Z,83.61
2019-01-24T21:43:28.829Z,83.72
2019-01-24T21:45:58.168Z,83.84
2019-01-24T21:48:27.414Z,84.02
2019-01-24T21:50:56.634Z,84.14
2019-01-24T21:53:25.971Z,84.24
2019-01-24T21:55:55.425Z,84.32
2019-01-24T21:58:24.646Z,84.33
2019-01-24T22:00:53.850Z,84.22
2019-01-24T22:03:23.059Z,84.17
2019-01-24T22:05:52.272Z,84.17
2019-01-24T22:08:21.520Z,84.18
2019-01-24T22:10:51.129Z,84.23
2019-01-24T22:13:20.319Z,84.28
2019-01-24T22:15:49.593Z,84.37
2019-01-24T22:18:18.927Z,84.47
2019-01-24T22:20:55.444Z,84.43
2019-01-24T22:23:19.315Z,84.60
2019-01-24T22:25:48.514Z,84.61
2019-01-24T22:28:17.705Z,84.51
2019-01-24T22:30:50.175Z,84.58
2019-01-24T22:33:19.357Z,84.58
2019-01-24T22:35:48.571Z,84.58
2019-01-24T22:38:18.306Z,84.49
2019-01-24T22:40:47.488Z,84.53
2019-01-24T22:43:16.718Z,84.75
2019-01-24T22:45:46.772Z,84.71
2019-01-24T22:48:16.082Z,84.74
2019-01-24T22:50:48.053Z,84.73
2019-01-24T22:53:19.769Z,85.03
2019-01-24T22:55:49.482Z,85.05
2019-01-24T22:58:18.939Z,84.96
2019-01-24T23:01:09.889Z,84.94
2019-01-24T23:04:04.458Z,84.90
2019-01-24T23:06:33.712Z,84.88
2019-01-24T23:09:05.368Z,84.84
2019-01-24T23:11:34.683Z,84.92
2019-01-24T23:14:04.145Z,84.92
2019-01-24T23:16:34.018Z,84.97
2019-01-24T23:19:03.407Z,85.00
2019-01-24T23:21:32.703Z,84.94
2019-01-24T23:24:02.009Z,84.91
2019-01-24T23:26:33.390Z,84.91
2019-01-24T23:29:03.410Z,84.91
2019-01-24T23:31:32.607Z,84.90
2019-01-24T23:34:01.817Z,84.89
2019-01-24T23:36:34.202Z,84.88
2019-01-24T23:39:03.440Z,84.84
2019-01-24T23:41:35.516Z,84.87
2019-01-24T23:44:04.990Z,84.91
2019-01-24T23:46:34.213Z,84.88
2019-01-24T23:49:03.460Z,84.84
2019-01-24T23:51:32.781Z,84.82
2019-01-24T23:54:02.324Z,84.78
2019-01-24T23:56:31.906Z,84.78
2019-01-24T23:59:01.503Z,84.81
